<?xml version="1.0" encoding="UTF-8" standalone="no" ?>
<gpx xmlns="http://www.topografix.com/GPX/1/1" xmlns:xsi="http://www.w3.org/2001/XMLSchema-instance" xsi:schemaLocation="http://www.topografix.com/GPX/1/1 http://www.topografix.com/GPX/1/1/gpx.xsd" version="1.1" creator="VisuGPX - https://www.visugpx.com">
  <metadata>
    <name>GRPSM_J1BocageMod_19.4km</name>
    <desc><![CDATA[Version modifiée JI Clisson _Boussay GareàGare 19.4km]]></desc>
  </metadata>
  <trk>
    <name><![CDATA[GRPSM_J1Bocage_22.9km-12394732]]></name>
    <extensions>
      <line xmlns="http://www.topografix.com/GPX/gpx_style/0/2">
        <color>0000FF</color>
        <width>4</width>
      </line>
    </extensions>
    <trkseg>
      <trkpt lat="47.08654" lon="-1.27992">
        <ele>21</ele>
        <time>2023-11-10T17:31:27Z</time>
      </trkpt>
      <trkpt lat="47.08641" lon="-1.27984">
        <ele>21</ele>
        <time>2023-11-10T17:31:46Z</time>
      </trkpt>
      <trkpt lat="47.0857" lon="-1.27952">
        <ele>25</ele>
        <time>2023-11-10T17:33:25Z</time>
      </trkpt>
      <trkpt lat="47.08569" lon="-1.2794">
        <ele>25</ele>
        <time>2023-11-10T17:33:36Z</time>
      </trkpt>
      <trkpt lat="47.08566" lon="-1.27936">
        <ele>25</ele>
        <time>2023-11-10T17:33:41Z</time>
      </trkpt>
      <trkpt lat="47.08553" lon="-1.27929">
        <ele>26</ele>
        <time>2023-11-10T17:34:00Z</time>
      </trkpt>
      <trkpt lat="47.08552" lon="-1.27924">
        <ele>26</ele>
        <time>2023-11-10T17:34:05Z</time>
      </trkpt>
      <trkpt lat="47.08561" lon="-1.279">
        <ele>24</ele>
        <time>2023-11-10T17:34:29Z</time>
      </trkpt>
      <trkpt lat="47.08563" lon="-1.27876">
        <ele>23</ele>
        <time>2023-11-10T17:34:51Z</time>
      </trkpt>
      <trkpt lat="47.08556" lon="-1.27851">
        <ele>23</ele>
        <time>2023-11-10T17:35:16Z</time>
      </trkpt>
      <trkpt lat="47.08545" lon="-1.27833">
        <ele>24</ele>
        <time>2023-11-10T17:35:38Z</time>
      </trkpt>
      <trkpt lat="47.08518" lon="-1.27803">
        <ele>24</ele>
        <time>2023-11-10T17:36:23Z</time>
      </trkpt>
      <trkpt lat="47.08469" lon="-1.27758">
        <ele>23</ele>
        <time>2023-11-10T17:37:40Z</time>
      </trkpt>
      <trkpt lat="47.08442" lon="-1.27722">
        <ele>23</ele>
        <time>2023-11-10T17:38:29Z</time>
      </trkpt>
      <trkpt lat="47.08412" lon="-1.2769">
        <ele>22</ele>
        <time>2023-11-10T17:39:18Z</time>
      </trkpt>
      <trkpt lat="47.08342" lon="-1.27636">
        <ele>22</ele>
        <time>2023-11-10T17:41:04Z</time>
      </trkpt>
      <trkpt lat="47.08307" lon="-1.27621">
        <ele>22</ele>
        <time>2023-11-10T17:41:53Z</time>
      </trkpt>
      <trkpt lat="47.08284" lon="-1.27597">
        <ele>21</ele>
        <time>2023-11-10T17:42:30Z</time>
      </trkpt>
      <trkpt lat="47.08268" lon="-1.27562">
        <ele>20</ele>
        <time>2023-11-10T17:43:09Z</time>
      </trkpt>
      <trkpt lat="47.08266" lon="-1.27546">
        <ele>19</ele>
        <time>2023-11-10T17:43:23Z</time>
      </trkpt>
      <trkpt lat="47.08267" lon="-1.27528">
        <ele>19</ele>
        <time>2023-11-10T17:43:40Z</time>
      </trkpt>
      <trkpt lat="47.08298" lon="-1.27399">
        <ele>19</ele>
        <time>2023-11-10T17:45:44Z</time>
      </trkpt>
      <trkpt lat="47.08296" lon="-1.27385">
        <ele>19</ele>
        <time>2023-11-10T17:45:57Z</time>
      </trkpt>
      <trkpt lat="47.08288" lon="-1.27363">
        <ele>21</ele>
        <time>2023-11-10T17:46:20Z</time>
      </trkpt>
      <trkpt lat="47.08282" lon="-1.27361">
        <ele>21</ele>
        <time>2023-11-10T17:46:28Z</time>
      </trkpt>
      <trkpt lat="47.08283" lon="-1.27237">
        <ele>26</ele>
        <time>2023-11-10T17:48:21Z</time>
      </trkpt>
      <trkpt lat="47.08329" lon="-1.271">
        <ele>24</ele>
        <time>2023-11-10T17:50:39Z</time>
      </trkpt>
      <trkpt lat="47.08367" lon="-1.27075">
        <ele>22</ele>
        <time>2023-11-10T17:51:35Z</time>
      </trkpt>
      <trkpt lat="47.08383" lon="-1.2705">
        <ele>22</ele>
        <time>2023-11-10T17:52:06Z</time>
      </trkpt>
      <trkpt lat="47.08398" lon="-1.26991">
        <ele>22</ele>
        <time>2023-11-10T17:53:03Z</time>
      </trkpt>
      <trkpt lat="47.08428" lon="-1.26953">
        <ele>21</ele>
        <time>2023-11-10T17:53:56Z</time>
      </trkpt>
      <trkpt lat="47.0843" lon="-1.26946">
        <ele>21</ele>
        <time>2023-11-10T17:54:03Z</time>
      </trkpt>
      <trkpt lat="47.08451" lon="-1.26943">
        <ele>20</ele>
        <time>2023-11-10T17:54:31Z</time>
      </trkpt>
      <trkpt lat="47.08457" lon="-1.26916">
        <ele>20</ele>
        <time>2023-11-10T17:54:57Z</time>
      </trkpt>
      <trkpt lat="47.08454" lon="-1.26884">
        <ele>22</ele>
        <time>2023-11-10T17:55:26Z</time>
      </trkpt>
      <trkpt lat="47.08443" lon="-1.2684">
        <ele>24</ele>
        <time>2023-11-10T17:56:09Z</time>
      </trkpt>
      <trkpt lat="47.08432" lon="-1.26823">
        <ele>24</ele>
        <time>2023-11-10T17:56:30Z</time>
      </trkpt>
      <trkpt lat="47.08418" lon="-1.26794">
        <ele>25</ele>
        <time>2023-11-10T17:57:03Z</time>
      </trkpt>
      <trkpt lat="47.08399" lon="-1.26765">
        <ele>26</ele>
        <time>2023-11-10T17:57:39Z</time>
      </trkpt>
      <trkpt lat="47.08361" lon="-1.26725">
        <ele>27</ele>
        <time>2023-11-10T17:58:42Z</time>
      </trkpt>
      <trkpt lat="47.08334" lon="-1.26677">
        <ele>24</ele>
        <time>2023-11-10T17:59:38Z</time>
      </trkpt>
      <trkpt lat="47.08313" lon="-1.26648">
        <ele>24</ele>
        <time>2023-11-10T18:00:17Z</time>
      </trkpt>
      <trkpt lat="47.08306" lon="-1.26631">
        <ele>24</ele>
        <time>2023-11-10T18:00:35Z</time>
      </trkpt>
      <trkpt lat="47.08295" lon="-1.26615">
        <ele>24</ele>
        <time>2023-11-10T18:00:55Z</time>
      </trkpt>
      <trkpt lat="47.08325" lon="-1.26573">
        <ele>21</ele>
        <time>2023-11-10T18:01:51Z</time>
      </trkpt>
      <trkpt lat="47.08331" lon="-1.26559">
        <ele>22</ele>
        <time>2023-11-10T18:02:06Z</time>
      </trkpt>
      <trkpt lat="47.08338" lon="-1.26555">
        <ele>23</ele>
        <time>2023-11-10T18:02:16Z</time>
      </trkpt>
      <trkpt lat="47.08316" lon="-1.26548">
        <ele>23</ele>
        <time>2023-11-10T18:02:46Z</time>
      </trkpt>
      <trkpt lat="47.08306" lon="-1.26538">
        <ele>23</ele>
        <time>2023-11-10T18:03:02Z</time>
      </trkpt>
      <trkpt lat="47.08279" lon="-1.26473">
        <ele>24</ele>
        <time>2023-11-10T18:04:11Z</time>
      </trkpt>
      <trkpt lat="47.08262" lon="-1.26453">
        <ele>23</ele>
        <time>2023-11-10T18:04:40Z</time>
      </trkpt>
      <trkpt lat="47.08246" lon="-1.26439">
        <ele>22</ele>
        <time>2023-11-10T18:05:05Z</time>
      </trkpt>
      <trkpt lat="47.0821" lon="-1.26423">
        <ele>23</ele>
        <time>2023-11-10T18:05:55Z</time>
      </trkpt>
      <trkpt lat="47.082" lon="-1.26416">
        <ele>22</ele>
        <time>2023-11-10T18:06:10Z</time>
      </trkpt>
      <trkpt lat="47.08174" lon="-1.26389">
        <ele>25</ele>
        <time>2023-11-10T18:06:52Z</time>
      </trkpt>
      <trkpt lat="47.08165" lon="-1.26374">
        <ele>26</ele>
        <time>2023-11-10T18:07:11Z</time>
      </trkpt>
      <trkpt lat="47.08116" lon="-1.26339">
        <ele>26</ele>
        <time>2023-11-10T18:08:23Z</time>
      </trkpt>
      <trkpt lat="47.08079" lon="-1.26302">
        <ele>26</ele>
        <time>2023-11-10T18:09:23Z</time>
      </trkpt>
      <trkpt lat="47.08068" lon="-1.26285">
        <ele>26</ele>
        <time>2023-11-10T18:09:44Z</time>
      </trkpt>
      <trkpt lat="47.08041" lon="-1.26268">
        <ele>25</ele>
        <time>2023-11-10T18:10:24Z</time>
      </trkpt>
      <trkpt lat="47.08016" lon="-1.26247">
        <ele>24</ele>
        <time>2023-11-10T18:11:02Z</time>
      </trkpt>
      <trkpt lat="47.08003" lon="-1.2622">
        <ele>24</ele>
        <time>2023-11-10T18:11:32Z</time>
      </trkpt>
      <trkpt lat="47.07975" lon="-1.26172">
        <ele>26</ele>
        <time>2023-11-10T18:12:30Z</time>
      </trkpt>
      <trkpt lat="47.07965" lon="-1.2616">
        <ele>27</ele>
        <time>2023-11-10T18:12:47Z</time>
      </trkpt>
      <trkpt lat="47.07955" lon="-1.26138">
        <ele>27</ele>
        <time>2023-11-10T18:13:11Z</time>
      </trkpt>
      <trkpt lat="47.07952" lon="-1.26122">
        <ele>27</ele>
        <time>2023-11-10T18:13:26Z</time>
      </trkpt>
      <trkpt lat="47.07952" lon="-1.26099">
        <ele>28</ele>
        <time>2023-11-10T18:13:47Z</time>
      </trkpt>
      <trkpt lat="47.07958" lon="-1.26074">
        <ele>29</ele>
        <time>2023-11-10T18:14:11Z</time>
      </trkpt>
      <trkpt lat="47.07963" lon="-1.26035">
        <ele>30</ele>
        <time>2023-11-10T18:14:47Z</time>
      </trkpt>
      <trkpt lat="47.07956" lon="-1.26009">
        <ele>30</ele>
        <time>2023-11-10T18:15:12Z</time>
      </trkpt>
      <trkpt lat="47.07938" lon="-1.25986">
        <ele>29</ele>
        <time>2023-11-10T18:15:44Z</time>
      </trkpt>
      <trkpt lat="47.07916" lon="-1.25968">
        <ele>28</ele>
        <time>2023-11-10T18:16:18Z</time>
      </trkpt>
      <trkpt lat="47.07888" lon="-1.25964">
        <ele>29</ele>
        <time>2023-11-10T18:16:55Z</time>
      </trkpt>
      <trkpt lat="47.07818" lon="-1.25994">
        <ele>26</ele>
        <time>2023-11-10T18:18:33Z</time>
      </trkpt>
      <trkpt lat="47.078" lon="-1.25998">
        <ele>25</ele>
        <time>2023-11-10T18:18:57Z</time>
      </trkpt>
      <trkpt lat="47.0776" lon="-1.26">
        <ele>24</ele>
        <time>2023-11-10T18:19:50Z</time>
      </trkpt>
      <trkpt lat="47.07742" lon="-1.25998">
        <ele>24</ele>
        <time>2023-11-10T18:20:14Z</time>
      </trkpt>
      <trkpt lat="47.07728" lon="-1.2599">
        <ele>25</ele>
        <time>2023-11-10T18:20:34Z</time>
      </trkpt>
      <trkpt lat="47.07722" lon="-1.25979">
        <ele>25</ele>
        <time>2023-11-10T18:20:47Z</time>
      </trkpt>
      <trkpt lat="47.07723" lon="-1.25966">
        <ele>26</ele>
        <time>2023-11-10T18:20:59Z</time>
      </trkpt>
      <trkpt lat="47.07721" lon="-1.25962">
        <ele>27</ele>
        <time>2023-11-10T18:21:04Z</time>
      </trkpt>
      <trkpt lat="47.07685" lon="-1.25945">
        <ele>27</ele>
        <time>2023-11-10T18:21:54Z</time>
      </trkpt>
      <trkpt lat="47.07658" lon="-1.25921">
        <ele>27</ele>
        <time>2023-11-10T18:22:36Z</time>
      </trkpt>
      <trkpt lat="47.07647" lon="-1.25904">
        <ele>27</ele>
        <time>2023-11-10T18:22:58Z</time>
      </trkpt>
      <trkpt lat="47.07595" lon="-1.25795">
        <ele>27</ele>
        <time>2023-11-10T18:24:58Z</time>
      </trkpt>
      <trkpt lat="47.07588" lon="-1.25778">
        <ele>27</ele>
        <time>2023-11-10T18:25:17Z</time>
      </trkpt>
      <trkpt lat="47.07583" lon="-1.25754">
        <ele>28</ele>
        <time>2023-11-10T18:25:39Z</time>
      </trkpt>
      <trkpt lat="47.0758" lon="-1.25718">
        <ele>27</ele>
        <time>2023-11-10T18:26:12Z</time>
      </trkpt>
      <trkpt lat="47.07582" lon="-1.25684">
        <ele>27</ele>
        <time>2023-11-10T18:26:43Z</time>
      </trkpt>
      <trkpt lat="47.07602" lon="-1.25569">
        <ele>31</ele>
        <time>2023-11-10T18:28:31Z</time>
      </trkpt>
      <trkpt lat="47.07601" lon="-1.25551">
        <ele>31</ele>
        <time>2023-11-10T18:28:48Z</time>
      </trkpt>
      <trkpt lat="47.076" lon="-1.25543">
        <ele>32</ele>
        <time>2023-11-10T18:28:55Z</time>
      </trkpt>
      <trkpt lat="47.07593" lon="-1.25529">
        <ele>32</ele>
        <time>2023-11-10T18:29:11Z</time>
      </trkpt>
      <trkpt lat="47.07562" lon="-1.25496">
        <ele>30</ele>
        <time>2023-11-10T18:30:02Z</time>
      </trkpt>
      <trkpt lat="47.07554" lon="-1.2548">
        <ele>29</ele>
        <time>2023-11-10T18:30:20Z</time>
      </trkpt>
      <trkpt lat="47.07537" lon="-1.25376">
        <ele>28</ele>
        <time>2023-11-10T18:31:57Z</time>
      </trkpt>
      <trkpt lat="47.07546" lon="-1.25352">
        <ele>28</ele>
        <time>2023-11-10T18:32:22Z</time>
      </trkpt>
      <trkpt lat="47.07585" lon="-1.25294">
        <ele>28</ele>
        <time>2023-11-10T18:33:36Z</time>
      </trkpt>
      <trkpt lat="47.07536" lon="-1.25227">
        <ele>25</ele>
        <time>2023-11-10T18:35:05Z</time>
      </trkpt>
      <trkpt lat="47.07505" lon="-1.25197">
        <ele>25</ele>
        <time>2023-11-10T18:35:55Z</time>
      </trkpt>
      <trkpt lat="47.07497" lon="-1.25184">
        <ele>25</ele>
        <time>2023-11-10T18:36:11Z</time>
      </trkpt>
      <trkpt lat="47.07486" lon="-1.25195">
        <ele>25</ele>
        <time>2023-11-10T18:36:29Z</time>
      </trkpt>
      <trkpt lat="47.07475" lon="-1.2519">
        <ele>25</ele>
        <time>2023-11-10T18:36:44Z</time>
      </trkpt>
      <trkpt lat="47.07462" lon="-1.25177">
        <ele>25</ele>
        <time>2023-11-10T18:37:05Z</time>
      </trkpt>
      <trkpt lat="47.07455" lon="-1.25164">
        <ele>25</ele>
        <time>2023-11-10T18:37:20Z</time>
      </trkpt>
      <trkpt lat="47.07448" lon="-1.25157">
        <ele>26</ele>
        <time>2023-11-10T18:37:31Z</time>
      </trkpt>
      <trkpt lat="47.07439" lon="-1.25155">
        <ele>26</ele>
        <time>2023-11-10T18:37:44Z</time>
      </trkpt>
      <trkpt lat="47.07422" lon="-1.25141">
        <ele>26</ele>
        <time>2023-11-10T18:38:10Z</time>
      </trkpt>
      <trkpt lat="47.07422" lon="-1.25122">
        <ele>27</ele>
        <time>2023-11-10T18:38:27Z</time>
      </trkpt>
      <trkpt lat="47.07416" lon="-1.2511">
        <ele>28</ele>
        <time>2023-11-10T18:38:40Z</time>
      </trkpt>
      <trkpt lat="47.0741" lon="-1.25106">
        <ele>28</ele>
        <time>2023-11-10T18:38:49Z</time>
      </trkpt>
      <trkpt lat="47.074" lon="-1.25104">
        <ele>27</ele>
        <time>2023-11-10T18:39:03Z</time>
      </trkpt>
      <trkpt lat="47.07377" lon="-1.25135">
        <ele>25</ele>
        <time>2023-11-10T18:39:44Z</time>
      </trkpt>
      <trkpt lat="47.07375" lon="-1.25148">
        <ele>24</ele>
        <time>2023-11-10T18:39:56Z</time>
      </trkpt>
      <trkpt lat="47.07342" lon="-1.25162">
        <ele>23</ele>
        <time>2023-11-10T18:40:42Z</time>
      </trkpt>
      <trkpt lat="47.07335" lon="-1.25159">
        <ele>23</ele>
        <time>2023-11-10T18:40:52Z</time>
      </trkpt>
      <trkpt lat="47.07332" lon="-1.25155">
        <ele>23</ele>
        <time>2023-11-10T18:40:57Z</time>
      </trkpt>
      <trkpt lat="47.07326" lon="-1.25155">
        <ele>23</ele>
        <time>2023-11-10T18:41:05Z</time>
      </trkpt>
      <trkpt lat="47.07252" lon="-1.25253">
        <ele>21</ele>
        <time>2023-11-10T18:43:18Z</time>
      </trkpt>
      <trkpt lat="47.07245" lon="-1.25256">
        <ele>21</ele>
        <time>2023-11-10T18:43:28Z</time>
      </trkpt>
      <trkpt lat="47.07227" lon="-1.25244">
        <ele>22</ele>
        <time>2023-11-10T18:43:54Z</time>
      </trkpt>
      <trkpt lat="47.07212" lon="-1.25225">
        <ele>22</ele>
        <time>2023-11-10T18:44:21Z</time>
      </trkpt>
      <trkpt lat="47.07202" lon="-1.25203">
        <ele>23</ele>
        <time>2023-11-10T18:44:45Z</time>
      </trkpt>
      <trkpt lat="47.07187" lon="-1.25128">
        <ele>24</ele>
        <time>2023-11-10T18:45:56Z</time>
      </trkpt>
      <trkpt lat="47.07182" lon="-1.25118">
        <ele>24</ele>
        <time>2023-11-10T18:46:07Z</time>
      </trkpt>
      <trkpt lat="47.07201" lon="-1.25085">
        <ele>24</ele>
        <time>2023-11-10T18:46:47Z</time>
      </trkpt>
      <trkpt lat="47.07215" lon="-1.25083">
        <ele>24</ele>
        <time>2023-11-10T18:47:05Z</time>
      </trkpt>
      <trkpt lat="47.07257" lon="-1.25033">
        <ele>26</ele>
        <time>2023-11-10T18:48:17Z</time>
      </trkpt>
      <trkpt lat="47.07242" lon="-1.25004">
        <ele>27</ele>
        <time>2023-11-10T18:48:51Z</time>
      </trkpt>
      <trkpt lat="47.07239" lon="-1.24989">
        <ele>28</ele>
        <time>2023-11-10T18:49:05Z</time>
      </trkpt>
      <trkpt lat="47.07243" lon="-1.24963">
        <ele>29</ele>
        <time>2023-11-10T18:49:29Z</time>
      </trkpt>
      <trkpt lat="47.07255" lon="-1.24923">
        <ele>32</ele>
        <time>2023-11-10T18:50:09Z</time>
      </trkpt>
      <trkpt lat="47.07197" lon="-1.24891">
        <ele>32</ele>
        <time>2023-11-10T18:51:31Z</time>
      </trkpt>
      <trkpt lat="47.07184" lon="-1.24878">
        <ele>32</ele>
        <time>2023-11-10T18:51:52Z</time>
      </trkpt>
      <trkpt lat="47.07172" lon="-1.24859">
        <ele>32</ele>
        <time>2023-11-10T18:52:16Z</time>
      </trkpt>
      <trkpt lat="47.07109" lon="-1.24698">
        <ele>33</ele>
        <time>2023-11-10T18:55:05Z</time>
      </trkpt>
      <trkpt lat="47.0709" lon="-1.2467">
        <ele>32</ele>
        <time>2023-11-10T18:55:41Z</time>
      </trkpt>
      <trkpt lat="47.07075" lon="-1.2466">
        <ele>32</ele>
        <time>2023-11-10T18:56:03Z</time>
      </trkpt>
      <trkpt lat="47.07061" lon="-1.24655">
        <ele>32</ele>
        <time>2023-11-10T18:56:22Z</time>
      </trkpt>
      <trkpt lat="47.06989" lon="-1.24644">
        <ele>31</ele>
        <time>2023-11-10T18:57:58Z</time>
      </trkpt>
      <trkpt lat="47.06969" lon="-1.2464">
        <ele>30</ele>
        <time>2023-11-10T18:58:25Z</time>
      </trkpt>
      <trkpt lat="47.06954" lon="-1.24634">
        <ele>29</ele>
        <time>2023-11-10T18:58:46Z</time>
      </trkpt>
      <trkpt lat="47.07027" lon="-1.2444">
        <ele>37</ele>
        <time>2023-11-10T19:02:08Z</time>
      </trkpt>
      <trkpt lat="47.07046" lon="-1.24397">
        <ele>38</ele>
        <time>2023-11-10T19:02:54Z</time>
      </trkpt>
      <trkpt lat="47.07062" lon="-1.24368">
        <ele>40</ele>
        <time>2023-11-10T19:03:28Z</time>
      </trkpt>
      <trkpt lat="47.07095" lon="-1.24281">
        <ele>42</ele>
        <time>2023-11-10T19:04:59Z</time>
      </trkpt>
      <trkpt lat="47.07105" lon="-1.24266">
        <ele>42</ele>
        <time>2023-11-10T19:05:18Z</time>
      </trkpt>
      <trkpt lat="47.07117" lon="-1.24256">
        <ele>42</ele>
        <time>2023-11-10T19:05:36Z</time>
      </trkpt>
      <trkpt lat="47.07133" lon="-1.24249">
        <ele>41</ele>
        <time>2023-11-10T19:05:58Z</time>
      </trkpt>
      <trkpt lat="47.07137" lon="-1.24242">
        <ele>41</ele>
        <time>2023-11-10T19:06:07Z</time>
      </trkpt>
      <trkpt lat="47.07134" lon="-1.24244">
        <ele>41</ele>
        <time>2023-11-10T19:06:11Z</time>
      </trkpt>
      <trkpt lat="47.0711" lon="-1.24199">
        <ele>41</ele>
        <time>2023-11-10T19:07:03Z</time>
      </trkpt>
      <trkpt lat="47.07068" lon="-1.24129">
        <ele>40</ele>
        <time>2023-11-10T19:08:28Z</time>
      </trkpt>
      <trkpt lat="47.07032" lon="-1.24053">
        <ele>38</ele>
        <time>2023-11-10T19:09:52Z</time>
      </trkpt>
      <trkpt lat="47.07004" lon="-1.24001">
        <ele>36</ele>
        <time>2023-11-10T19:10:52Z</time>
      </trkpt>
      <trkpt lat="47.06993" lon="-1.23988">
        <ele>35</ele>
        <time>2023-11-10T19:11:11Z</time>
      </trkpt>
      <trkpt lat="47.06982" lon="-1.23958">
        <ele>34</ele>
        <time>2023-11-10T19:11:42Z</time>
      </trkpt>
      <trkpt lat="47.06972" lon="-1.23911">
        <ele>32</ele>
        <time>2023-11-10T19:12:27Z</time>
      </trkpt>
      <trkpt lat="47.06963" lon="-1.23882">
        <ele>32</ele>
        <time>2023-11-10T19:12:56Z</time>
      </trkpt>
      <trkpt lat="47.06955" lon="-1.23874">
        <ele>32</ele>
        <time>2023-11-10T19:13:09Z</time>
      </trkpt>
      <trkpt lat="47.06935" lon="-1.23866">
        <ele>31</ele>
        <time>2023-11-10T19:13:36Z</time>
      </trkpt>
      <trkpt lat="47.06923" lon="-1.23854">
        <ele>31</ele>
        <time>2023-11-10T19:13:56Z</time>
      </trkpt>
      <trkpt lat="47.06882" lon="-1.23741">
        <ele>34</ele>
        <time>2023-11-10T19:15:52Z</time>
      </trkpt>
      <trkpt lat="47.06852" lon="-1.23682">
        <ele>36</ele>
        <time>2023-11-10T19:16:59Z</time>
      </trkpt>
      <trkpt lat="47.06791" lon="-1.23601">
        <ele>34</ele>
        <time>2023-11-10T19:18:49Z</time>
      </trkpt>
      <trkpt lat="47.06781" lon="-1.23591">
        <ele>34</ele>
        <time>2023-11-10T19:19:05Z</time>
      </trkpt>
      <trkpt lat="47.06745" lon="-1.23522">
        <ele>31</ele>
        <time>2023-11-10T19:20:24Z</time>
      </trkpt>
      <trkpt lat="47.06724" lon="-1.23491">
        <ele>31</ele>
        <time>2023-11-10T19:21:04Z</time>
      </trkpt>
      <trkpt lat="47.06698" lon="-1.23459">
        <ele>31</ele>
        <time>2023-11-10T19:21:49Z</time>
      </trkpt>
      <trkpt lat="47.0669" lon="-1.23444">
        <ele>31</ele>
        <time>2023-11-10T19:22:06Z</time>
      </trkpt>
      <trkpt lat="47.06676" lon="-1.23394">
        <ele>31</ele>
        <time>2023-11-10T19:22:55Z</time>
      </trkpt>
      <trkpt lat="47.06659" lon="-1.23283">
        <ele>32</ele>
        <time>2023-11-10T19:24:39Z</time>
      </trkpt>
      <trkpt lat="47.06643" lon="-1.23238">
        <ele>33</ele>
        <time>2023-11-10T19:25:25Z</time>
      </trkpt>
      <trkpt lat="47.06629" lon="-1.23209">
        <ele>33</ele>
        <time>2023-11-10T19:25:57Z</time>
      </trkpt>
      <trkpt lat="47.06624" lon="-1.23188">
        <ele>33</ele>
        <time>2023-11-10T19:26:17Z</time>
      </trkpt>
      <trkpt lat="47.06627" lon="-1.231">
        <ele>33</ele>
        <time>2023-11-10T19:27:38Z</time>
      </trkpt>
      <trkpt lat="47.0662" lon="-1.23104">
        <ele>33</ele>
        <time>2023-11-10T19:27:48Z</time>
      </trkpt>
      <trkpt lat="47.06611" lon="-1.23035">
        <ele>36</ele>
        <time>2023-11-10T19:28:51Z</time>
      </trkpt>
      <trkpt lat="47.06603" lon="-1.22995">
        <ele>39</ele>
        <time>2023-11-10T19:29:29Z</time>
      </trkpt>
      <trkpt lat="47.0659" lon="-1.22992">
        <ele>39</ele>
        <time>2023-11-10T19:29:47Z</time>
      </trkpt>
      <trkpt lat="47.06565" lon="-1.23027">
        <ele>37</ele>
        <time>2023-11-10T19:30:33Z</time>
      </trkpt>
      <trkpt lat="47.06544" lon="-1.2305">
        <ele>35</ele>
        <time>2023-11-10T19:31:08Z</time>
      </trkpt>
      <trkpt lat="47.06523" lon="-1.23053">
        <ele>35</ele>
        <time>2023-11-10T19:31:36Z</time>
      </trkpt>
      <trkpt lat="47.06495" lon="-1.23039">
        <ele>36</ele>
        <time>2023-11-10T19:32:16Z</time>
      </trkpt>
      <trkpt lat="47.06467" lon="-1.2302">
        <ele>37</ele>
        <time>2023-11-10T19:32:57Z</time>
      </trkpt>
      <trkpt lat="47.06422" lon="-1.23002">
        <ele>35</ele>
        <time>2023-11-10T19:33:59Z</time>
      </trkpt>
      <trkpt lat="47.06383" lon="-1.22933">
        <ele>37</ele>
        <time>2023-11-10T19:35:20Z</time>
      </trkpt>
      <trkpt lat="47.06341" lon="-1.22884">
        <ele>33</ele>
        <time>2023-11-10T19:36:32Z</time>
      </trkpt>
      <trkpt lat="47.06321" lon="-1.22864">
        <ele>33</ele>
        <time>2023-11-10T19:37:04Z</time>
      </trkpt>
      <trkpt lat="47.0628" lon="-1.22814">
        <ele>33</ele>
        <time>2023-11-10T19:38:15Z</time>
      </trkpt>
      <trkpt lat="47.06254" lon="-1.22768">
        <ele>32</ele>
        <time>2023-11-10T19:39:10Z</time>
      </trkpt>
      <trkpt lat="47.06226" lon="-1.22709">
        <ele>35</ele>
        <time>2023-11-10T19:40:15Z</time>
      </trkpt>
      <trkpt lat="47.06218" lon="-1.22668">
        <ele>36</ele>
        <time>2023-11-10T19:40:54Z</time>
      </trkpt>
      <trkpt lat="47.0618" lon="-1.22637">
        <ele>32</ele>
        <time>2023-11-10T19:41:52Z</time>
      </trkpt>
      <trkpt lat="47.06123" lon="-1.22534">
        <ele>35</ele>
        <time>2023-11-10T19:43:53Z</time>
      </trkpt>
      <trkpt lat="47.06075" lon="-1.22411">
        <ele>36</ele>
        <time>2023-11-10T19:46:01Z</time>
      </trkpt>
      <trkpt lat="47.06051" lon="-1.22391">
        <ele>36</ele>
        <time>2023-11-10T19:46:38Z</time>
      </trkpt>
      <trkpt lat="47.0602" lon="-1.22377">
        <ele>34</ele>
        <time>2023-11-10T19:47:22Z</time>
      </trkpt>
      <trkpt lat="47.05979" lon="-1.22369">
        <ele>34</ele>
        <time>2023-11-10T19:48:17Z</time>
      </trkpt>
      <trkpt lat="47.05983" lon="-1.22369">
        <ele>34</ele>
        <time>2023-11-10T19:48:22Z</time>
      </trkpt>
      <trkpt lat="47.05891" lon="-1.22407">
        <ele>26.9</ele>
      </trkpt>
      <trkpt lat="47.05906" lon="-1.22478">
        <ele>26.3</ele>
      </trkpt>
      <trkpt lat="47.05754" lon="-1.22534">
        <ele>30.3</ele>
      </trkpt>
      <trkpt lat="47.05777" lon="-1.22457">
        <ele>27.6</ele>
      </trkpt>
      <trkpt lat="47.05746" lon="-1.22427">
        <ele>27.5</ele>
      </trkpt>
      <trkpt lat="47.05704" lon="-1.22427">
        <ele>29.3</ele>
      </trkpt>
      <trkpt lat="47.05706" lon="-1.22304">
        <ele>29.2</ele>
      </trkpt>
      <trkpt lat="47.05589" lon="-1.22114">
        <ele>28.8</ele>
      </trkpt>
      <trkpt lat="47.0546" lon="-1.22109">
        <ele>28.9</ele>
      </trkpt>
      <trkpt lat="47.05355" lon="-1.21955">
        <ele>28.4</ele>
      </trkpt>
      <trkpt lat="47.05292" lon="-1.21568">
        <ele>28.2</ele>
      </trkpt>
      <trkpt lat="47.0516" lon="-1.21566">
        <ele>29.6</ele>
      </trkpt>
      <trkpt lat="47.05045" lon="-1.21414">
        <ele>36.3</ele>
      </trkpt>
      <trkpt lat="47.04986" lon="-1.21227">
        <ele>36.5</ele>
      </trkpt>
      <trkpt lat="47.0497" lon="-1.21077">
        <ele>44.5</ele>
      </trkpt>
      <trkpt lat="47.04822" lon="-1.21403">
        <ele>60</ele>
      </trkpt>
      <trkpt lat="47.04599" lon="-1.21135">
        <ele>61.5</ele>
      </trkpt>
      <trkpt lat="47.04561" lon="-1.2121">
        <ele>61.4</ele>
      </trkpt>
      <trkpt lat="47.04485" lon="-1.21167">
        <ele>67.1</ele>
      </trkpt>
      <trkpt lat="47.04496" lon="-1.20991">
        <ele>71.8</ele>
      </trkpt>
      <trkpt lat="47.04337" lon="-1.20908">
        <ele>70.9</ele>
      </trkpt>
      <trkpt lat="47.04257" lon="-1.20704">
        <ele>65.8</ele>
      </trkpt>
      <trkpt lat="47.04233" lon="-1.20506">
        <ele>59.2</ele>
      </trkpt>
      <trkpt lat="47.04204" lon="-1.20358">
        <ele>32.8</ele>
      </trkpt>
      <trkpt lat="47.04049" lon="-1.20242">
        <ele>33.4</ele>
      </trkpt>
      <trkpt lat="47.03887" lon="-1.20305">
        <ele>39.4</ele>
      </trkpt>
      <trkpt lat="47.03809" lon="-1.20438">
        <ele>48.7</ele>
      </trkpt>
      <trkpt lat="47.0368" lon="-1.20528">
        <ele>57</ele>
      </trkpt>
      <trkpt lat="47.03563" lon="-1.2044">
        <ele>67.7</ele>
      </trkpt>
      <trkpt lat="47.0337" lon="-1.20455">
        <ele>72.9</ele>
      </trkpt>
      <trkpt lat="47.03249" lon="-1.19757">
        <ele>68.8</ele>
      </trkpt>
      <trkpt lat="47.0324" lon="-1.1953">
        <ele>68.4</ele>
      </trkpt>
      <trkpt lat="47.03376" lon="-1.19352">
        <ele>60.5</ele>
      </trkpt>
      <trkpt lat="47.0342" lon="-1.19412">
        <ele>61.1</ele>
      </trkpt>
      <trkpt lat="47.03565" lon="-1.19318">
        <ele>67.9</ele>
      </trkpt>
      <trkpt lat="47.03737" lon="-1.19307">
        <ele>68.5</ele>
      </trkpt>
      <trkpt lat="47.03778" lon="-1.19232">
        <ele>66.6</ele>
      </trkpt>
      <trkpt lat="47.03838" lon="-1.19281">
        <ele>57.5</ele>
      </trkpt>
      <trkpt lat="47.03891" lon="-1.19062">
        <ele>34.2</ele>
      </trkpt>
      <trkpt lat="47.03786" lon="-1.18828">
        <ele>34.7</ele>
      </trkpt>
      <trkpt lat="47.03723" lon="-1.18732">
        <ele>36.6</ele>
      </trkpt>
      <trkpt lat="47.03692" lon="-1.18719">
        <ele>38.8</ele>
      </trkpt>
      <trkpt lat="47.03667" lon="-1.18547">
        <ele>37.7</ele>
      </trkpt>
      <trkpt lat="47.036" lon="-1.18541">
        <ele>40.6</ele>
      </trkpt>
      <trkpt lat="47.03621" lon="-1.18457">
        <ele>40.8</ele>
      </trkpt>
      <trkpt lat="47.0373" lon="-1.18431">
        <ele>43.3</ele>
      </trkpt>
      <trkpt lat="47.0371" lon="-1.18307">
        <ele>48.4</ele>
      </trkpt>
      <trkpt lat="47.03778" lon="-1.18384">
        <ele>54.5</ele>
      </trkpt>
      <trkpt lat="47.03865" lon="-1.18383">
        <ele>53.2</ele>
      </trkpt>
      <trkpt lat="47.03954" lon="-1.18484">
        <ele>65.3</ele>
      </trkpt>
      <trkpt lat="47.04029" lon="-1.18589">
        <ele>74.2</ele>
      </trkpt>
      <trkpt lat="47.04117" lon="-1.18642">
        <ele>76.2</ele>
      </trkpt>
      <trkpt lat="47.04227" lon="-1.18655">
        <ele>78.1</ele>
      </trkpt>
      <trkpt lat="47.04268" lon="-1.18748">
        <ele>79.3</ele>
      </trkpt>
      <trkpt lat="47.04136" lon="-1.18817">
        <ele>73.9</ele>
      </trkpt>
      <trkpt lat="47.04186" lon="-1.18906">
        <ele>75.3</ele>
      </trkpt>
      <trkpt lat="47.04086" lon="-1.19003">
        <ele>68.9</ele>
      </trkpt>
      <trkpt lat="47.04036" lon="-1.1909">
        <ele>60.5</ele>
      </trkpt>
      <trkpt lat="47.04047" lon="-1.1912">
        <ele>57.5</ele>
      </trkpt>
      <trkpt lat="47.04013" lon="-1.19203">
        <ele>47.6</ele>
      </trkpt>
      <trkpt lat="47.03984" lon="-1.19198">
        <ele>45.5</ele>
      </trkpt>
      <trkpt lat="47.03982" lon="-1.1959">
        <ele>39.1</ele>
      </trkpt>
      <trkpt lat="47.04042" lon="-1.19718">
        <ele>39.8</ele>
      </trkpt>
      <trkpt lat="47.04071" lon="-1.20011">
        <ele>38.5</ele>
      </trkpt>
      <trkpt lat="47.04176" lon="-1.20139">
        <ele>41.9</ele>
      </trkpt>
      <trkpt lat="47.04201" lon="-1.2023">
        <ele>33.3</ele>
      </trkpt>
      <trkpt lat="47.0429" lon="-1.20199">
        <ele>34.6</ele>
      </trkpt>
      <trkpt lat="47.04372" lon="-1.20114">
        <ele>37</ele>
      </trkpt>
      <trkpt lat="47.04532" lon="-1.20131">
        <ele>36.3</ele>
      </trkpt>
      <trkpt lat="47.04644" lon="-1.20187">
        <ele>34.6</ele>
      </trkpt>
      <trkpt lat="47.04646" lon="-1.20348">
        <ele>38.1</ele>
      </trkpt>
      <trkpt lat="47.04627" lon="-1.20451">
        <ele>37.4</ele>
      </trkpt>
      <trkpt lat="47.04634" lon="-1.20558">
        <ele>34.1</ele>
      </trkpt>
      <trkpt lat="47.04681" lon="-1.20635">
        <ele>34.3</ele>
      </trkpt>
      <trkpt lat="47.04737" lon="-1.20618">
        <ele>46.2</ele>
      </trkpt>
      <trkpt lat="47.04701" lon="-1.20603">
        <ele>46.8</ele>
      </trkpt>
      <trkpt lat="47.04741" lon="-1.20419">
        <ele>56.3</ele>
      </trkpt>
      <trkpt lat="47.04758" lon="-1.20396">
        <ele>55.7</ele>
      </trkpt>
      <trkpt lat="47.04706" lon="-1.20312">
        <ele>54.3</ele>
      </trkpt>
      <trkpt lat="47.04766" lon="-1.20179">
        <ele>53.9</ele>
      </trkpt>
      <trkpt lat="47.04946" lon="-1.19784">
        <ele>66.1</ele>
      </trkpt>
      <trkpt lat="47.04985" lon="-1.19597">
        <ele>65.1</ele>
      </trkpt>
      <trkpt lat="47.05197" lon="-1.19621">
        <ele>67.7</ele>
      </trkpt>
      <trkpt lat="47.05017" lon="-1.19101">
        <ele>73</ele>
      </trkpt>
      <trkpt lat="47.04915" lon="-1.18464">
        <ele>82</ele>
      </trkpt>
      <trkpt lat="47.05018" lon="-1.1843">
        <ele>81</ele>
      </trkpt>
      <trkpt lat="47.0509" lon="-1.18503">
        <ele>79.8</ele>
      </trkpt>
    </trkseg>
  </trk>
</gpx>